Time;durP1;ratioP1;P1;durP2;ratioP2;P2;SDS_P1;SDS_P2;PMS_P1;PMS_P2;Temp;Humidity;BMP_temperature;BMP_pressure;BME280_temperature;BME280_humidity;BME280_pressure;Samples;Min_cycle;Max_cycle;Signal;HPM_P1;HPM_P2
2021/12/13 00:02:02;;;;;;;5.35;4.82;;;;;;;;;;5081306;28;20203;-80
2021/12/13 00:04:36;;;;;;;8.10;4.93;;;;;;;;;;5093367;28;20510;-83
2021/12/13 00:07:29;;;;;;;5.90;4.97;;;;;;;;;;5094543;28;20175;-81
2021/12/13 00:09:56;;;;;;;6.78;4.35;;;;;;;;;;5088711;28;20215;-81
2021/12/13 00:12:24;;;;;;;5.13;3.95;;;;;;;;;;5075547;28;20221;-82
2021/12/13 00:14:51;;;;;;;4.88;4.20;;;;;;;;;;5093813;28;20183;-81
2021/12/13 00:17:27;;;;;;;7.00;4.20;;;;;;;;;;5093629;28;20172;-82
2021/12/13 00:19:58;;;;;;;5.75;3.83;;;;;;;;;;5075455;28;20839;-82
2021/12/13 00:22:34;;;;;;;7.60;4.30;;;;;;;;;;5075946;28;20633;-82
2021/12/13 00:25:08;;;;;;;5.25;3.72;;;;;;;;;;5095978;28;20247;-81
2021/12/13 00:27:39;;;;;;;5.50;4.60;;;;;;;;;;5097981;28;20535;-82
2021/12/13 00:30:18;;;;;;;4.28;3.88;;;;;;;;;;5097421;28;20223;-83
2021/12/13 00:32:59;;;;;;;4.10;3.70;;;;;;;;;;5097939;28;20168;-83
2021/12/13 00:35:36;;;;;;;8.70;3.92;;;;;;;;;;5097642;28;20175;-83
2021/12/13 00:38:03;;;;;;;4.20;3.80;;;;;;;;;;5079198;28;20176;-83
2021/12/13 00:40:32;;;;;;;4.70;3.47;;;;;;;;;;5096889;28;20674;-83
2021/12/13 00:43:04;;;;;;;5.22;3.65;;;;;;;;;;5097217;28;20177;-83
2021/12/13 00:45:31;;;;;;;4.30;3.50;;;;;;;;;;5097181;28;20168;-82
2021/12/13 00:48:01;;;;;;;5.55;3.65;;;;;;;;;;5097038;28;20180;-83
2021/12/13 00:50:37;;;;;;;4.47;3.85;;;;;;;;;;5096437;28;20696;-83
2021/12/13 00:53:03;;;;;;;3.65;3.35;;;;;;;;;;5097327;28;20160;-82
2021/12/13 00:55:31;;;;;;;4.15;3.55;;;;;;;;;;5096982;28;20175;-83
2021/12/13 00:58:13;;;;;;;4.75;3.78;;;;;;;;;;5096877;28;20180;-81
2021/12/13 01:00:39;;;;;;;4.22;3.53;;;;;;;;;;5096140;28;20264;-81
2021/12/13 01:03:10;;;;;;;3.60;2.80;;;;;;;;;;5096751;28;20179;-82
2021/12/13 01:05:55;;;;;;;10.15;3.80;;;;;;;;;;5096383;28;20422;-83
2021/12/13 01:08:39;;;;;;;5.88;4.25;;;;;;;;;;5096258;28;20172;-84
2021/12/13 01:11:40;;;;;;;4.22;3.83;;;;;;;;;;5096107;28;20204;-84
2021/12/13 01:14:12;;;;;;;3.95;3.55;;;;;;;;;;4994404;28;20286;-82
2021/12/13 01:17:08;;;;;;;4.72;4.28;;;;;;;;;;5079316;28;20211;-82
2021/12/13 01:19:57;;;;;;;7.40;4.10;;;;;;;;;;5095356;28;20522;-82
2021/12/13 01:22:59;;;;;;;4.30;3.90;;;;;;;;;;5096055;28;20144;-83
2021/12/13 01:28:08;;;;;;;5.35;4.15;;;;;;;;;;5096261;28;20172;-81
2021/12/13 01:30:37;;;;;;;7.72;4.47;;;;;;;;;;5095439;28;20261;-83
2021/12/13 01:33:05;;;;;;;4.45;4.03;;;;;;;;;;5095953;28;20217;-82
2021/12/13 01:35:33;;;;;;;5.03;3.83;;;;;;;;;;5077854;28;20179;-82
2021/12/13 01:38:03;;;;;;;7.82;4.25;;;;;;;;;;5096337;28;20177;-83
2021/12/13 01:40:31;;;;;;;5.60;4.05;;;;;;;;;;5095935;28;20605;-83
2021/12/13 01:43:02;;;;;;;5.13;4.50;;;;;;;;;;5096237;28;20187;-81
2021/12/13 01:45:30;;;;;;;6.72;5.28;;;;;;;;;;5095996;28;20263;-81
2021/12/13 01:47:57;;;;;;;5.72;4.53;;;;;;;;;;5095652;28;20187;-82
2021/12/13 01:50:31;;;;;;;5.80;4.53;;;;;;;;;;5095209;28;20215;-82
2021/12/13 01:52:57;;;;;;;6.50;4.20;;;;;;;;;;5095405;28;20241;-82
2021/12/13 01:55:30;;;;;;;5.75;4.78;;;;;;;;;;5095456;28;20176;-82
2021/12/13 01:58:08;;;;;;;4.80;4.20;;;;;;;;;;5095445;28;20192;-82
2021/12/13 02:03:22;;;;;;;3.97;3.58;;;;;;;;;;5095813;28;20271;-82
2021/12/13 02:05:49;;;;;;;6.70;4.18;;;;;;;;;;5095325;28;20177;-83
2021/12/13 02:08:16;;;;;;;4.05;3.33;;;;;;;;;;5095226;28;20180;-82
2021/12/13 02:10:46;;;;;;;4.57;4.15;;;;;;;;;;5094649;28;20208;-82
2021/12/13 02:13:14;;;;;;;4.30;3.75;;;;;;;;;;5095049;28;20655;-82
2021/12/13 02:18:29;;;;;;;5.38;3.95;;;;;;;;;;5095141;28;20171;-82
2021/12/13 02:21:03;;;;;;;7.90;4.38;;;;;;;;;;5094562;28;20211;-83
2021/12/13 02:23:29;;;;;;;5.07;4.20;;;;;;;;;;5076930;28;20209;-82
2021/12/13 02:25:57;;;;;;;7.72;4.47;;;;;;;;;;5076747;28;20183;-82
2021/12/13 02:28:24;;;;;;;4.63;3.97;;;;;;;;;;5094942;28;20192;-82
2021/12/13 02:30:54;;;;;;;4.32;3.47;;;;;;;;;;5076061;28;20680;-83
2021/12/13 02:33:26;;;;;;;3.72;3.33;;;;;;;;;;5094745;28;20156;-83
2021/12/13 02:35:57;;;;;;;4.35;3.95;;;;;;;;;;5094683;28;20168;-83
2021/12/13 02:38:25;;;;;;;4.18;3.00;;;;;;;;;;5094950;28;20168;-82
2021/12/13 02:40:51;;;;;;;3.65;3.25;;;;;;;;;;5094132;28;20279;-83
2021/12/13 02:43:19;;;;;;;8.65;3.40;;;;;;;;;;5076263;28;20183;-82
2021/12/13 02:45:48;;;;;;;3.47;3.15;;;;;;;;;;5095119;28;20176;-81
2021/12/13 02:48:17;;;;;;;3.50;3.10;;;;;;;;;;5094287;28;20203;-83
2021/12/13 02:50:58;;;;;;;4.40;3.45;;;;;;;;;;5093979;28;20752;-82
2021/12/13 02:53:44;;;;;;;4.15;3.45;;;;;;;;;;5094376;28;20247;-82
2021/12/13 02:56:12;;;;;;;3.67;2.53;;;;;;;;;;5093983;28;20207;-82
2021/12/13 02:58:39;;;;;;;3.47;2.85;;;;;;;;;;5075988;28;20277;-82
2021/12/13 03:01:24;;;;;;;3.28;2.80;;;;;;;;;;5093910;28;20195;-82
2021/12/13 03:03:52;;;;;;;3.88;3.00;;;;;;;;;;5094079;28;20180;-81
2021/12/13 03:06:20;;;;;;;3.42;3.10;;;;;;;;;;5094281;28;20190;-82
2021/12/13 03:08:52;;;;;;;5.25;2.90;;;;;;;;;;5075851;28;20202;-81
2021/12/13 03:11:24;;;;;;;4.03;3.25;;;;;;;;;;5075520;28;20663;-82
2021/12/13 03:13:55;;;;;;;4.32;3.10;;;;;;;;;;5093927;28;20202;-82
2021/12/13 03:16:25;;;;;;;4.65;3.50;;;;;;;;;;5094377;28;20504;-83
2021/12/13 03:18:51;;;;;;;3.28;2.97;;;;;;;;;;5093898;28;20155;-82
2021/12/13 03:21:36;;;;;;;6.53;4.17;;;;;;;;;;5093341;28;20191;-82
2021/12/13 03:24:18;;;;;;;4.50;3.20;;;;;;;;;;5094046;28;20398;-82
2021/12/13 03:26:47;;;;;;;4.57;2.85;;;;;;;;;;5093869;28;20172;-82
2021/12/13 03:29:23;;;;;;;3.90;2.95;;;;;;;;;;5075238;28;20285;-82
2021/12/13 03:31:51;;;;;;;4.05;2.53;;;;;;;;;;5094273;28;20187;-82
2021/12/13 03:34:20;;;;;;;4.63;2.60;;;;;;;;;;5075369;28;20645;-83
2021/12/13 03:36:48;;;;;;;6.28;3.22;;;;;;;;;;5075387;28;20184;-82
2021/12/13 03:39:40;;;;;;;2.80;2.55;;;;;;;;;;5093283;28;20181;-82
2021/12/13 03:42:09;;;;;;;4.05;3.30;;;;;;;;;;5088893;28;20215;-82
2021/12/13 03:44:38;;;;;;;7.65;3.35;;;;;;;;;;5093496;28;20199;-83
2021/12/13 03:47:11;;;;;;;3.50;3.20;;;;;;;;;;5075381;28;20180;-82
2021/12/13 03:49:39;;;;;;;3.22;2.50;;;;;;;;;;5092981;28;20184;-82
2021/12/13 03:52:06;;;;;;;2.75;2.53;;;;;;;;;;5093415;28;20647;-82
2021/12/13 03:54:37;;;;;;;3.33;3.03;;;;;;;;;;5093381;28;20537;-82
2021/12/13 03:57:03;;;;;;;3.00;2.40;;;;;;;;;;5093475;28;20503;-81
2021/12/13 03:59:33;;;;;;;3.58;2.53;;;;;;;;;;5092081;28;20172;-82
2021/12/13 04:02:01;;;;;;;3.78;2.78;;;;;;;;;;5093489;28;20192;-82
2021/12/13 04:04:57;;;;;;;3.10;2.80;;;;;;;;;;5093223;28;20176;-82
2021/12/13 04:07:28;;;;;;;10.35;3.30;;;;;;;;;;5072165;28;20192;-82
2021/12/13 04:09:55;;;;;;;3.95;2.80;;;;;;;;;;5092745;28;20203;-81
2021/12/13 04:12:25;;;;;;;3.05;2.42;;;;;;;;;;5093389;28;20631;-82
2021/12/13 04:14:58;;;;;;;2.78;2.53;;;;;;;;;;5093157;28;20187;-81
2021/12/13 04:18:26;;;;;;;3.80;3.22;;;;;;;;;;5075064;28;20160;-83
2021/12/13 04:20:22;;;;;;;4.03;2.92;;;;;;;;;;5084241;28;20196;-82
2021/12/13 04:22:51;;;;;;;5.97;3.45;;;;;;;;;;5093121;28;20183;-82
2021/12/13 04:25:19;;;;;;;4.63;2.92;;;;;;;;;;5093070;28;20183;-82
2021/12/13 04:27:56;;;;;;;2.60;2.15;;;;;;;;;;5074777;28;20180;-82
2021/12/13 04:30:22;;;;;;;2.45;2.25;;;;;;;;;;5092589;28;20207;-82
2021/12/13 04:32:55;;;;;;;4.50;3.37;;;;;;;;;;5093029;28;20174;-82
2021/12/13 04:35:21;;;;;;;2.75;2.35;;;;;;;;;;5093184;28;20406;-82
2021/12/13 04:37:49;;;;;;;2.65;2.45;;;;;;;;;;5092838;28;20547;-82
2021/12/13 04:40:17;;;;;;;5.05;2.63;;;;;;;;;;5074442;28;20628;-81
2021/12/13 04:42:43;;;;;;;2.65;2.42;;;;;;;;;;5092884;28;20190;-82
2021/12/13 04:45:12;;;;;;;3.85;2.92;;;;;;;;;;5092886;28;20176;-83
2021/12/13 04:47:38;;;;;;;3.42;2.75;;;;;;;;;;5092914;28;20229;-82
2021/12/13 04:50:11;;;;;;;3.80;2.40;;;;;;;;;;5092436;28;20250;-82
2021/12/13 04:52:37;;;;;;;3.53;2.65;;;;;;;;;;5092804;28;20221;-83
2021/12/13 04:55:06;;;;;;;3.92;2.33;;;;;;;;;;5092957;28;20173;-82
2021/12/13 04:57:32;;;;;;;2.72;2.45;;;;;;;;;;5092772;28;20659;-81
2021/12/13 05:00:00;;;;;;;2.78;2.50;;;;;;;;;;5092454;28;20184;-82
2021/12/13 05:02:27;;;;;;;2.90;2.70;;;;;;;;;;5092716;28;20221;-82
2021/12/13 05:04:55;;;;;;;3.10;2.58;;;;;;;;;;5092695;28;20305;-83
2021/12/13 05:07:21;;;;;;;2.55;2.10;;;;;;;;;;5092902;28;20168;-83
2021/12/13 05:09:48;;;;;;;2.60;2.40;;;;;;;;;;5092321;28;20199;-82
2021/12/13 05:12:16;;;;;;;5.07;2.22;;;;;;;;;;5095984;28;20192;-82
2021/12/13 05:14:46;;;;;;;3.75;1.90;;;;;;;;;;5096239;28;20296;-82
2021/12/13 05:17:24;;;;;;;2.20;2.00;;;;;;;;;;5096424;28;20292;-82
2021/12/13 05:20:01;;;;;;;2.60;1.90;;;;;;;;;;5096303;28;20176;-81
2021/12/13 05:22:28;;;;;;;6.13;2.45;;;;;;;;;;5078272;28;20718;-83
2021/12/13 05:24:57;;;;;;;2.63;2.42;;;;;;;;;;5095957;28;20176;-82
2021/12/13 05:27:34;;;;;;;5.18;2.55;;;;;;;;;;5077843;28;20639;-82
2021/12/13 05:30:09;;;;;;;3.80;2.40;;;;;;;;;;5095543;28;20203;-82
2021/12/13 05:32:38;;;;;;;5.47;2.40;;;;;;;;;;5095855;28;20231;-82
2021/12/13 05:35:08;;;;;;;2.28;2.05;;;;;;;;;;5095956;28;20200;-82
2021/12/13 05:37:41;;;;;;;3.50;2.20;;;;;;;;;;5096181;28;20183;-82
2021/12/13 05:40:10;;;;;;;4.13;2.40;;;;;;;;;;5095510;28;20180;-82
2021/12/13 05:42:42;;;;;;;4.30;2.10;;;;;;;;;;5095776;28;20189;-81
2021/12/13 05:45:10;;;;;;;2.30;1.80;;;;;;;;;;5095741;28;20172;-82
2021/12/13 05:47:36;;;;;;;2.45;2.25;;;;;;;;;;5095664;28;20543;-82
2021/12/13 05:50:05;;;;;;;2.53;2.30;;;;;;;;;;5077051;28;20238;-82
2021/12/13 05:52:34;;;;;;;4.47;2.50;;;;;;;;;;5077619;28;20234;-82
2021/12/13 05:55:02;;;;;;;2.08;1.95;;;;;;;;;;5095564;28;20540;-82
2021/12/13 05:57:34;;;;;;;2.67;2.28;;;;;;;;;;5095540;28;20171;-83
2021/12/13 06:00:23;;;;;;;4.25;2.30;;;;;;;;;;5095139;28;20199;-82
2021/12/13 06:03:08;;;;;;;3.38;2.53;;;;;;;;;;5095267;28;20179;-83
2021/12/13 06:05:42;;;;;;;4.72;2.03;;;;;;;;;;5077053;28;20611;-83
2021/12/13 06:08:11;;;;;;;1.83;1.70;;;;;;;;;;5095072;28;20210;-83
2021/12/13 06:10:40;;;;;;;4.53;2.65;;;;;;;;;;5094559;28;20564;-83
2021/12/13 06:13:08;;;;;;;2.70;2.25;;;;;;;;;;5095119;28;20216;-83
2021/12/13 06:15:36;;;;;;;4.20;2.50;;;;;;;;;;5095065;28;20158;-82
2021/12/13 06:18:05;;;;;;;2.42;1.77;;;;;;;;;;5095201;28;20180;-82
2021/12/13 06:20:31;;;;;;;5.25;2.60;;;;;;;;;;5076394;28;20207;-82
2021/12/13 06:23:05;;;;;;;3.28;2.85;;;;;;;;;;5094172;28;20543;-83
2021/12/13 06:25:31;;;;;;;4.00;2.40;;;;;;;;;;5094825;28;20176;-82
2021/12/13 06:27:59;;;;;;;7.15;2.80;;;;;;;;;;5094711;28;20172;-82
2021/12/13 06:30:38;;;;;;;4.05;2.88;;;;;;;;;;5094401;28;20221;-81
2021/12/13 06:33:08;;;;;;;3.33;2.90;;;;;;;;;;5094767;28;20175;-82
2021/12/13 06:35:37;;;;;;;3.08;2.75;;;;;;;;;;5094739;28;20278;-82
2021/12/13 06:38:22;;;;;;;2.78;2.50;;;;;;;;;;5094633;28;20297;-82
2021/12/13 06:40:56;;;;;;;2.45;2.25;;;;;;;;;;5094971;28;20192;-82
2021/12/13 06:43:28;;;;;;;6.07;2.30;;;;;;;;;;5094540;28;20198;-82
2021/12/13 06:45:54;;;;;;;2.63;2.42;;;;;;;;;;5076319;28;20175;-82
2021/12/13 06:48:31;;;;;;;4.43;2.42;;;;;;;;;;5094583;28;20176;-83
2021/12/13 06:50:57;;;;;;;3.58;2.85;;;;;;;;;;5094991;28;20562;-81
2021/12/13 06:53:23;;;;;;;13.90;3.15;;;;;;;;;;5076155;28;20187;-81
2021/12/13 06:55:50;;;;;;;3.03;2.80;;;;;;;;;;5094260;28;20175;-82
2021/12/13 06:58:19;;;;;;;2.97;2.15;;;;;;;;;;5094230;28;20251;-82
2021/12/13 07:00:46;;;;;;;2.92;2.28;;;;;;;;;;5075360;28;20203;-81
2021/12/13 07:03:19;;;;;;;4.20;3.10;;;;;;;;;;5075829;28;21021;-81
2021/12/13 07:05:47;;;;;;;8.82;2.53;;;;;;;;;;5094072;28;20168;-81
2021/12/13 07:08:19;;;;;;;4.15;2.83;;;;;;;;;;5094196;28;20181;-82
2021/12/13 07:10:51;;;;;;;4.07;3.10;;;;;;;;;;5075384;28;20208;-81
2021/12/13 07:13:23;;;;;;;3.25;2.92;;;;;;;;;;5093819;28;20191;-81
2021/12/13 07:16:03;;;;;;;3.67;2.45;;;;;;;;;;5093737;28;20178;-82
2021/12/13 07:18:49;;;;;;;6.22;2.58;;;;;;;;;;5094018;28;20245;-81
2021/12/13 07:21:17;;;;;;;3.03;2.70;;;;;;;;;;5075389;28;20229;-81
2021/12/13 07:24:00;;;;;;;2.67;1.90;;;;;;;;;;5094756;28;20174;-81
2021/12/13 07:26:34;;;;;;;4.70;2.67;;;;;;;;;;5076610;28;20210;-82
2021/12/13 07:29:01;;;;;;;3.15;2.70;;;;;;;;;;5093425;28;20177;-80
2021/12/13 07:31:27;;;;;;;4.45;2.72;;;;;;;;;;5093542;28;20192;-80
2021/12/13 07:33:53;;;;;;;2.63;2.30;;;;;;;;;;5093546;28;20255;-81
2021/12/13 07:36:25;;;;;;;2.90;2.33;;;;;;;;;;5093575;28;20176;-80
2021/12/13 07:38:56;;;;;;;6.07;2.75;;;;;;;;;;5093747;28;20521;-81
2021/12/13 07:41:24;;;;;;;4.93;3.13;;;;;;;;;;5092910;28;20188;-81
2021/12/13 07:43:50;;;;;;;5.43;3.00;;;;;;;;;;5093535;28;20676;-80
2021/12/13 07:46:19;;;;;;;3.80;2.35;;;;;;;;;;5093437;28;20229;-81
2021/12/13 07:48:45;;;;;;;4.57;3.08;;;;;;;;;;5093415;28;20182;-81
2021/12/13 07:51:11;;;;;;;3.72;2.55;;;;;;;;;;5074794;28;20264;-83
2021/12/13 07:53:57;;;;;;;2.83;2.38;;;;;;;;;;5075116;28;20187;-81
2021/12/13 07:56:37;;;;;;;2.92;2.40;;;;;;;;;;5076158;28;20184;-81
2021/12/13 07:59:14;;;;;;;3.15;2.40;;;;;;;;;;5093375;28;20163;-82
2021/12/13 08:01:51;;;;;;;4.45;2.75;;;;;;;;;;5093069;28;20186;-81
2021/12/13 08:04:22;;;;;;;9.93;2.67;;;;;;;;;;5093126;28;20702;-80
2021/12/13 08:06:54;;;;;;;7.10;3.28;;;;;;;;;;5093151;28;20172;-80
2021/12/13 08:09:22;;;;;;;4.38;2.78;;;;;;;;;;5092781;28;20594;-80
2021/12/13 08:11:50;;;;;;;2.95;2.42;;;;;;;;;;5093068;28;20192;-80
2021/12/13 08:14:25;;;;;;;2.63;2.30;;;;;;;;;;5093057;28;20237;-80
2021/12/13 08:16:51;;;;;;;2.20;2.00;;;;;;;;;;5093095;28;20228;-80
2021/12/13 08:19:22;;;;;;;2.22;1.67;;;;;;;;;;5075185;28;20233;-80
2021/12/13 08:21:53;;;;;;;3.22;2.20;;;;;;;;;;5092962;28;20196;-80
2021/12/13 08:24:28;;;;;;;2.95;2.00;;;;;;;;;;5075105;28;20188;-80
2021/12/13 08:26:58;;;;;;;1.60;1.50;;;;;;;;;;5093270;28;20534;-80
2021/12/13 08:29:27;;;;;;;1.92;1.70;;;;;;;;;;5092744;28;20662;-80
2021/12/13 08:31:54;;;;;;;1.70;1.50;;;;;;;;;;5092954;28;20184;-80
2021/12/13 08:34:26;;;;;;;2.78;1.70;;;;;;;;;;5093020;28;20180;-79
2021/12/13 08:36:52;;;;;;;2.20;2.00;;;;;;;;;;5092967;28;20202;-79
2021/12/13 08:39:18;;;;;;;3.35;2.15;;;;;;;;;;5074568;28;20185;-81
2021/12/13 08:42:09;;;;;;;2.67;1.40;;;;;;;;;;5093097;28;20196;-80
2021/12/13 08:44:52;;;;;;;6.60;1.50;;;;;;;;;;5081247;28;20501;-80
2021/12/13 08:47:20;;;;;;;1.70;1.48;;;;;;;;;;5096839;28;20188;-79
2021/12/13 08:49:54;;;;;;;1.58;1.48;;;;;;;;;;5096276;28;20242;-80
2021/12/13 08:52:33;;;;;;;2.80;1.73;;;;;;;;;;5096805;28;20182;-80
2021/12/13 08:55:06;;;;;;;2.17;1.60;;;;;;;;;;5096730;28;20218;-80
2021/12/13 08:57:35;;;;;;;2.42;1.65;;;;;;;;;;5096701;28;20597;-79
2021/12/13 09:00:08;;;;;;;4.05;1.38;;;;;;;;;;5096082;28;20176;-79
2021/12/13 09:02:37;;;;;;;2.50;1.25;;;;;;;;;;5096472;28;20172;-79
2021/12/13 09:05:06;;;;;;;1.33;1.23;;;;;;;;;;5096313;28;20699;-79
2021/12/13 09:07:33;;;;;;;2.53;1.42;;;;;;;;;;5078209;28;20211;-79
2021/12/13 09:09:59;;;;;;;2.15;1.70;;;;;;;;;;5095687;28;20196;-80
2021/12/13 09:12:27;;;;;;;3.05;2.03;;;;;;;;;;5096376;28;20183;-79
2021/12/13 09:14:56;;;;;;;4.38;2.10;;;;;;;;;;5096140;28;20191;-79
2021/12/13 09:17:26;;;;;;;2.33;2.13;;;;;;;;;;5096306;28;20653;-79
2021/12/13 09:19:52;;;;;;;3.60;1.90;;;;;;;;;;5095836;28;20172;-79
2021/12/13 09:22:21;;;;;;;2.77;1.87;;;;;;;;;;5096005;28;20527;-79
2021/12/13 09:24:47;;;;;;;2.38;2.17;;;;;;;;;;5096033;28;20398;-79
2021/12/13 09:27:29;;;;;;;2.60;2.30;;;;;;;;;;5077908;28;20199;-79
2021/12/13 09:30:04;;;;;;;3.08;2.75;;;;;;;;;;5077197;28;21021;-79
2021/12/13 09:32:33;;;;;;;10.27;7.50;;;;;;;;;;5096297;28;20199;-79
2021/12/13 09:35:17;;;;;;;2.50;2.30;;;;;;;;;;5095966;28;20230;-79
2021/12/13 09:37:43;;;;;;;4.80;4.28;;;;;;;;;;5095924;28;20652;-79
2021/12/13 09:40:10;;;;;;;8.10;7.18;;;;;;;;;;5095172;28;20676;-79
2021/12/13 09:42:50;;;;;;;5.20;4.80;;;;;;;;;;5077609;28;20183;-80
2021/12/13 09:45:27;;;;;;;13.55;12.35;;;;;;;;;;5095615;28;20648;-81
2021/12/13 09:47:53;;;;;;;3.60;3.30;;;;;;;;;;5095744;28;20559;-80
2021/12/13 09:50:21;;;;;;;5.25;4.15;;;;;;;;;;5094809;28;20291;-80
2021/12/13 09:52:54;;;;;;;71.55;51.70;;;;;;;;;;5095400;28;20168;-79
2021/12/13 09:55:31;;;;;;;10.65;8.00;;;;;;;;;;5095503;28;20164;-80
2021/12/13 09:57:57;;;;;;;3.05;2.75;;;;;;;;;;5094306;28;20198;-79
2021/12/13 10:00:26;;;;;;;5.23;2.93;;;;;;;;;;5076784;28;20206;-80
2021/12/13 10:02:55;;;;;;;21.15;19.15;;;;;;;;;;5095359;28;20407;-79
2021/12/13 10:05:25;;;;;;;12.32;9.77;;;;;;;;;;5095148;28;20172;-80
2021/12/13 10:07:54;;;;;;;10.15;7.55;;;;;;;;;;5095215;28;20179;-79
2021/12/13 10:10:23;;;;;;;6.53;4.40;;;;;;;;;;5094595;28;20617;-80
2021/12/13 10:12:58;;;;;;;14.40;11.20;;;;;;;;;;5076884;28;20274;-79
2021/12/13 10:15:32;;;;;;;21.92;15.75;;;;;;;;;;5095016;28;20178;-80
2021/12/13 10:18:00;;;;;;;13.60;10.07;;;;;;;;;;5095089;28;20163;-79
2021/12/13 10:20:37;;;;;;;6.38;5.72;;;;;;;;;;5076268;28;20752;-80
2021/12/13 10:23:06;;;;;;;9.68;7.35;;;;;;;;;;5095039;28;20172;-80
2021/12/13 10:25:33;;;;;;;8.48;6.82;;;;;;;;;;5094805;28;20176;-79
2021/12/13 10:28:01;;;;;;;10.57;9.48;;;;;;;;;;5094862;28;20172;-80
2021/12/13 10:30:29;;;;;;;9.15;7.28;;;;;;;;;;5094211;28;20211;-79
2021/12/13 10:32:55;;;;;;;7.13;5.10;;;;;;;;;;5094682;28;20167;-80
2021/12/13 10:35:24;;;;;;;3.58;3.10;;;;;;;;;;5076577;28;20183;-80
2021/12/13 10:37:53;;;;;;;9.52;6.78;;;;;;;;;;5094613;28;20176;-79
2021/12/13 10:40:26;;;;;;;5.85;4.20;;;;;;;;;;5094117;28;20196;-80
2021/12/13 10:42:57;;;;;;;7.88;5.32;;;;;;;;;;5094462;28;20303;-80
2021/12/13 10:45:26;;;;;;;4.38;3.20;;;;;;;;;;5094685;28;20180;-79
2021/12/13 10:47:53;;;;;;;3.55;2.70;;;;;;;;;;5076248;28;20667;-79
2021/12/13 10:50:23;;;;;;;3.75;3.03;;;;;;;;;;5094058;28;20214;-79
2021/12/13 10:52:51;;;;;;;3.60;3.30;;;;;;;;;;5094334;28;20247;-79
2021/12/13 10:55:23;;;;;;;3.13;2.83;;;;;;;;;;5094248;28;20227;-78
2021/12/13 10:57:49;;;;;;;4.20;2.97;;;;;;;;;;5094388;28;20330;-79
2021/12/13 11:00:18;;;;;;;3.95;2.75;;;;;;;;;;5093844;28;20282;-79
2021/12/13 11:02:45;;;;;;;5.40;3.30;;;;;;;;;;5093989;28;20553;-79
2021/12/13 11:05:13;;;;;;;4.32;3.92;;;;;;;;;;5076039;28;20568;-80
2021/12/13 11:07:39;;;;;;;4.07;2.92;;;;;;;;;;5093878;28;20238;-80
2021/12/13 11:10:07;;;;;;;3.55;3.00;;;;;;;;;;5093262;28;20202;-81
2021/12/13 11:12:36;;;;;;;3.25;2.85;;;;;;;;;;5093883;28;20166;-79
2021/12/13 11:15:05;;;;;;;5.70;4.03;;;;;;;;;;5093742;28;20255;-80
2021/12/13 11:17:32;;;;;;;4.25;2.90;;;;;;;;;;5093776;28;20406;-79
2021/12/13 11:20:00;;;;;;;2.95;2.75;;;;;;;;;;5093579;28;20229;-81
2021/12/13 11:22:32;;;;;;;3.55;2.90;;;;;;;;;;5073587;28;20183;-79
2021/12/13 11:25:04;;;;;;;3.65;3.30;;;;;;;;;;5094237;28;20289;-78
2021/12/13 11:27:33;;;;;;;2.28;2.08;;;;;;;;;;5114232;28;20175;-79
2021/12/13 11:30:01;;;;;;;2.50;2.30;;;;;;;;;;5113602;28;20286;-82
2021/12/13 11:32:39;;;;;;;6.82;2.30;;;;;;;;;;5113919;28;20175;-81
2021/12/13 11:35:11;;;;;;;2.75;2.15;;;;;;;;;;5095573;28;20557;-78
2021/12/13 11:37:56;;;;;;;2.63;1.70;;;;;;;;;;5114202;28;20640;-80
2021/12/13 11:40:40;;;;;;;2.10;1.90;;;;;;;;;;5113485;28;20199;-79
2021/12/13 11:43:18;;;;;;;1.70;1.17;;;;;;;;;;5113779;28;20684;-80
2021/12/13 11:46:02;;;;;;;1.67;1.20;;;;;;;;;;5113833;28;20284;-80
2021/12/13 11:48:31;;;;;;;3.35;1.20;;;;;;;;;;5113881;28;20176;-79
2021/12/13 11:51:00;;;;;;;4.55;1.15;;;;;;;;;;5113279;28;20210;-80
2021/12/13 11:53:38;;;;;;;2.05;1.15;;;;;;;;;;5113920;28;20174;-80
2021/12/13 11:56:23;;;;;;;1.73;1.40;;;;;;;;;;5113711;28;20183;-79
2021/12/13 11:58:52;;;;;;;2.55;1.10;;;;;;;;;;5113646;28;20509;-80
2021/12/13 12:01:40;;;;;;;1.13;0.85;;;;;;;;;;5113286;28;20275;-80
2021/12/13 12:04:06;;;;;;;1.33;0.80;;;;;;;;;;5113656;28;20168;-80
2021/12/13 12:06:44;;;;;;;1.80;0.97;;;;;;;;;;5113688;28;20221;-80
2021/12/13 12:09:36;;;;;;;1.10;1.00;;;;;;;;;;5113317;28;20530;-81
2021/12/13 12:12:02;;;;;;;1.40;1.00;;;;;;;;;;5075059;28;20203;-81
2021/12/13 12:14:29;;;;;;;1.17;1.07;;;;;;;;;;5113464;28;20659;-80
2021/12/13 12:16:57;;;;;;;1.38;1.00;;;;;;;;;;5095514;28;20778;-80
2021/12/13 12:19:26;;;;;;;1.30;1.20;;;;;;;;;;5094695;28;20274;-81
2021/12/13 12:22:13;;;;;;;2.15;1.08;;;;;;;;;;5116739;28;20191;-80
2021/12/13 12:24:41;;;;;;;0.98;0.73;;;;;;;;;;5114203;28;20199;-81
2021/12/13 12:27:09;;;;;;;1.33;0.90;;;;;;;;;;5117856;28;20235;-80
2021/12/13 12:29:44;;;;;;;1.38;1.27;;;;;;;;;;5117210;28;20203;-80
2021/12/13 12:32:13;;;;;;;1.23;0.82;;;;;;;;;;5099037;28;20205;-81
2021/12/13 12:35:05;;;;;;;1.00;0.70;;;;;;;;;;5117505;28;20175;-81
2021/12/13 12:37:50;;;;;;;0.90;0.70;;;;;;;;;;5060962;28;20197;-79
2021/12/13 12:40:22;;;;;;;0.70;0.60;;;;;;;;;;5116801;28;20231;-81
2021/12/13 12:42:50;;;;;;;0.90;0.73;;;;;;;;;;5098853;28;20648;-78
2021/12/13 12:45:28;;;;;;;1.02;0.68;;;;;;;;;;5117057;28;20174;-80
2021/12/13 12:48:06;;;;;;;13.57;12.45;;;;;;;;;;5117108;28;20224;-81
2021/12/13 12:50:34;;;;;;;7.70;7.00;;;;;;;;;;5116573;28;20276;-79
2021/12/13 12:53:05;;;;;;;0.80;0.60;;;;;;;;;;5117072;28;20588;-78
2021/12/13 12:55:42;;;;;;;2.65;1.10;;;;;;;;;;5116982;28;20179;-79
2021/12/13 12:58:10;;;;;;;0.93;0.82;;;;;;;;;;5117303;28;20620;-79
2021/12/13 13:00:38;;;;;;;3.90;1.58;;;;;;;;;;5116633;28;20195;-79
2021/12/13 13:03:04;;;;;;;5.30;5.00;;;;;;;;;;5116974;28;20666;-80
2021/12/13 13:05:31;;;;;;;2.63;1.20;;;;;;;;;;5116531;28;20186;-80
2021/12/13 13:07:57;;;;;;;3.80;0.77;;;;;;;;;;5098533;28;20184;-79
2021/12/13 13:13:03;;;;;;;0.85;0.60;;;;;;;;;;5116458;28;20210;-80
2021/12/13 13:15:32;;;;;;;5.28;4.18;;;;;;;;;;5116667;28;20168;-80
2021/12/13 13:18:00;;;;;;;1.65;0.60;;;;;;;;;;5116312;28;20259;-78
2021/12/13 13:20:34;;;;;;;1.75;1.38;;;;;;;;;;5116003;28;20191;-80
2021/12/13 13:23:01;;;;;;;3.45;2.85;;;;;;;;;;5116524;28;20182;-81
2021/12/13 13:25:30;;;;;;;0.68;0.52;;;;;;;;;;5081274;28;20207;-79
2021/12/13 13:27:56;;;;;;;0.80;0.70;;;;;;;;;;5116379;28;20178;-79
2021/12/13 13:30:27;;;;;;;1.90;1.58;;;;;;;;;;5116004;28;20206;-78
2021/12/13 13:32:53;;;;;;;4.68;3.08;;;;;;;;;;5115835;28;20164;-81
2021/12/13 13:35:19;;;;;;;18.52;11.30;;;;;;;;;;5116356;28;20179;-78
2021/12/13 13:37:45;;;;;;;2.28;1.10;;;;;;;;;;5116027;28;20229;-80
2021/12/13 13:40:15;;;;;;;2.45;1.73;;;;;;;;;;5097384;28;20232;-78
2021/12/13 13:43:44;;;;;;;;;;;;;;;;;;;;;
2021/12/13 13:46:01;;;;;;;1.15;0.77;;;;;;;;;;5071768;28;20195;-79
2021/12/13 13:48:29;;;;;;;1.02;0.75;;;;;;;;;;5115953;28;20171;-79
2021/12/13 13:50:55;;;;;;;18.67;10.35;;;;;;;;;;5115386;28;20260;-79
2021/12/13 13:53:22;;;;;;;5.55;3.47;;;;;;;;;;5097506;28;20582;-80
2021/12/13 13:55:54;;;;;;;1.27;0.90;;;;;;;;;;5115807;28;20236;-77
2021/12/13 13:58:23;;;;;;;8.85;6.03;;;;;;;;;;5115905;28;20168;-79
2021/12/13 14:00:52;;;;;;;1.90;1.30;;;;;;;;;;5115206;28;20202;-78
2021/12/13 14:03:18;;;;;;;1.55;1.20;;;;;;;;;;5115721;28;20211;-80
2021/12/13 14:05:45;;;;;;;0.75;0.60;;;;;;;;;;5115486;28;20266;-81
2021/12/13 14:08:19;;;;;;;1.48;0.70;;;;;;;;;;5115543;28;20193;-80
2021/12/13 14:10:45;;;;;;;1.70;0.80;;;;;;;;;;5115074;28;20207;-80
2021/12/13 14:13:11;;;;;;;1.27;0.90;;;;;;;;;;5115460;28;20183;-78
2021/12/13 14:15:40;;;;;;;1.13;0.65;;;;;;;;;;5115388;28;20587;-78
2021/12/13 14:18:09;;;;;;;2.63;1.23;;;;;;;;;;5115168;28;20166;-78
2021/12/13 14:20:35;;;;;;;10.43;6.47;;;;;;;;;;5114899;28;20196;-79
2021/12/13 14:23:15;;;;;;;555.60;336.97;;;;;;;;;;5115320;28;20176;-77
2021/12/13 14:25:43;;;;;;;12.35;8.88;;;;;;;;;;5115290;28;20400;-78
2021/12/13 14:28:10;;;;;;;1.48;1.20;;;;;;;;;;5115084;28;20301;-78
2021/12/13 14:30:38;;;;;;;1.15;0.70;;;;;;;;;;5114633;28;20205;-79
2021/12/13 14:33:20;;;;;;;1.35;1.15;;;;;;;;;;5115270;28;20262;-81
2021/12/13 14:35:46;;;;;;;0.75;0.68;;;;;;;;;;5096979;28;20184;-80
2021/12/13 14:38:12;;;;;;;2.00;0.82;;;;;;;;;;5115091;28;20174;-80
2021/12/13 14:40:50;;;;;;;0.80;0.67;;;;;;;;;;5114415;28;20660;-80
2021/12/13 14:43:24;;;;;;;0.70;0.70;;;;;;;;;;5114433;28;20409;-81
2021/12/13 14:45:51;;;;;;;0.90;0.70;;;;;;;;;;5114991;28;20171;-79
2021/12/13 14:48:18;;;;;;;1.00;0.70;;;;;;;;;;5114741;28;20251;-80
2021/12/13 14:50:48;;;;;;;1.25;1.13;;;;;;;;;;5114273;28;20226;-81
2021/12/13 14:53:20;;;;;;;18.52;16.63;;;;;;;;;;5114623;28;20676;-81
2021/12/13 14:55:48;;;;;;;9.80;7.20;;;;;;;;;;5114643;28;20686;-80
2021/12/13 14:58:16;;;;;;;24.80;17.35;;;;;;;;;;5114594;28;20179;-80
2021/12/13 15:00:45;;;;;;;2.20;2.10;;;;;;;;;;5114235;28;20192;-79
2021/12/13 15:03:13;;;;;;;2.05;1.73;;;;;;;;;;5114565;28;20175;-82
2021/12/13 15:05:42;;;;;;;1.10;0.80;;;;;;;;;;5114565;28;20180;-78
2021/12/13 15:08:10;;;;;;;0.82;0.68;;;;;;;;;;5114394;28;20167;-80
2021/12/13 15:10:38;;;;;;;3.80;0.80;;;;;;;;;;5095435;28;20298;-81
2021/12/13 15:13:07;;;;;;;1.02;0.70;;;;;;;;;;5114495;28;20194;-78
2021/12/13 15:15:37;;;;;;;1.10;0.95;;;;;;;;;;5114330;28;20171;-81
2021/12/13 15:18:04;;;;;;;5.10;1.30;;;;;;;;;;5096000;28;20270;-80
2021/12/13 15:20:32;;;;;;;1.90;1.02;;;;;;;;;;5113780;28;20565;-80